Terminal Aerodrome Forecast
Issued by NWS

Home | Current Version | Previous Version | Text Only | Print | Product List | Glossary On
Versions: 1 2 3 4 5 6 7 8 9 10 11 12
000
FTUS46 KHNX 200525
TAFBFL
TAF
KBFL 200525Z 2006/2106 01005KT 5SM HZ SKC
     FM201200 13005KT P6SM SKC
     FM202000 29006KT P6SM SKC
     FM210300 36005KT P6SM SKC=

USA.gov is the U.S. government's official web portal to all federal, state and local government web resources and services.